Time;durP1;ratioP1;P1;durP2;ratioP2;P2;SDS_P1;SDS_P2;PMS_P1;PMS_P2;Temp;Humidity;BMP_temperature;BMP_pressure;BME280_temperature;BME280_humidity;BME280_pressure;Samples;Min_cycle;Max_cycle;Signal;HPM_P1;HPM_P2
2023/09/04 00:00:58;;;;;;;6.87;2.27;;;;;;;16.17;100.00;150133.72;4979385;28;20334;-64
2023/09/04 00:03:25;;;;;;;2.87;2.10;;;;;;;16.09;100.00;150115.00;4993850;28;20308;-64
2023/09/04 00:05:52;;;;;;;8.43;3.13;;;;;;;16.09;100.00;150115.00;4988003;28;20251;-64
2023/09/04 00:08:18;;;;;;;3.30;2.43;;;;;;;16.03;100.00;150101.22;4990084;28;20586;-65
2023/09/04 00:10:45;;;;;;;3.97;2.40;;;;;;;16.07;100.00;150111.22;4989194;28;20228;-64
2023/09/04 00:13:13;;;;;;;4.70;2.60;;;;;;;16.09;100.00;150116.22;4992324;28;21065;-64
2023/09/04 00:15:40;;;;;;;3.40;2.50;;;;;;;16.01;100.00;150095.00;4977212;28;20306;-64
2023/09/04 00:18:08;;;;;;;3.03;2.20;;;;;;;16.02;100.00;150097.50;4995081;28;20224;-64
2023/09/04 00:20:36;;;;;;;4.67;2.80;;;;;;;15.97;100.00;150085.00;4979829;28;20254;-64
2023/09/04 00:23:03;;;;;;;4.30;2.40;;;;;;;15.86;100.00;150058.72;4990063;28;20313;-64
2023/09/04 00:25:29;;;;;;;2.60;2.40;;;;;;;15.79;100.00;150043.72;4993197;28;20238;-64
2023/09/04 00:27:57;;;;;;;4.50;2.50;;;;;;;15.76;100.00;150036.22;4972590;28;20588;-65
2023/09/04 00:30:23;;;;;;;5.83;2.43;;;;;;;15.75;100.00;150033.72;4973882;28;20234;-64
2023/09/04 00:32:50;;;;;;;3.23;2.30;;;;;;;15.71;100.00;150023.72;4990547;28;21953;-64
2023/09/04 00:35:19;;;;;;;4.47;2.40;;;;;;;15.84;100.00;150053.72;4981331;28;20225;-64
2023/09/04 00:37:45;;;;;;;2.67;2.40;;;;;;;15.76;100.00;150034.97;4988915;28;20232;-65
2023/09/04 00:40:11;;;;;;;3.70;2.30;;;;;;;15.79;100.00;150043.72;4988531;28;20232;-64
2023/09/04 00:42:38;;;;;;;4.07;2.53;;;;;;;15.78;100.00;150039.94;4959162;28;20255;-64
2023/09/04 00:45:06;;;;;;;2.90;2.23;;;;;;;15.81;100.00;150046.22;4976897;28;20237;-64
2023/09/04 00:47:35;;;;;;;4.67;2.40;;;;;;;15.72;100.00;150026.22;4941280;28;20319;-64
2023/09/04 00:50:02;;;;;;;3.20;2.27;;;;;;;15.62;100.00;150002.47;4954590;28;20242;-64
2023/09/04 00:52:30;;;;;;;3.63;2.47;;;;;;;15.63;100.00;150003.75;4982166;28;20223;-65
2023/09/04 00:54:57;;;;;;;4.50;2.40;;;;;;;15.65;100.00;150009.97;4977981;28;20235;-64
2023/09/04 00:57:26;;;;;;;2.73;2.40;;;;;;;15.54;100.00;149981.25;4975784;28;20235;-64
2023/09/04 00:59:53;;;;;;;2.30;1.83;;;;;;;15.54;100.00;149981.25;4975736;28;20231;-64
2023/09/04 01:02:20;;;;;;;4.30;1.87;;;;;;;15.54;100.00;149981.25;4982300;28;20235;-64
2023/09/04 01:04:46;;;;;;;5.73;2.47;;;;;;;15.60;100.00;149996.25;4969480;28;20225;-64
2023/09/04 01:07:14;;;;;;;3.40;2.30;;;;;;;15.52;100.00;149977.47;4989297;28;20717;-64
2023/09/04 01:09:42;;;;;;;6.53;2.00;;;;;;;15.48;100.00;149968.75;4987860;28;20228;-64
2023/09/04 01:12:15;;;;;;;3.50;2.23;;;;;;;15.40;100.00;149947.50;4974936;28;20241;-64
2023/09/04 01:14:44;;;;;;;2.57;2.30;;;;;;;15.40;100.00;149948.75;4981272;28;20246;-64
2023/09/04 01:17:12;;;;;;;3.63;2.10;;;;;;;15.35;100.00;149937.53;4948301;28;20227;-64
2023/09/04 01:19:39;;;;;;;4.47;2.30;;;;;;;15.38;100.00;149942.50;4957247;28;20243;-64
2023/09/04 01:22:07;;;;;;;3.70;2.20;;;;;;;15.49;100.00;149969.97;4987475;28;20231;-64
2023/09/04 01:24:34;;;;;;;4.93;2.30;;;;;;;15.52;100.00;149976.25;4993455;28;20224;-64
2023/09/04 01:27:06;;;;;;;2.87;2.20;;;;;;;15.67;100.00;150012.47;4987706;28;20595;-64
2023/09/04 01:29:37;;;;;;;3.90;2.20;;;;;;;15.55;100.00;149983.75;4981245;28;20222;-64
2023/09/04 01:32:08;;;;;;;5.43;2.27;;;;;;;15.47;100.00;149964.97;4973221;28;20237;-64
2023/09/04 01:34:38;;;;;;;3.63;2.10;;;;;;;15.39;100.00;149945.00;4975423;28;20601;-64
2023/09/04 01:37:05;;;;;;;3.50;2.20;;;;;;;15.27;100.00;149916.28;4971067;28;20243;-64
2023/09/04 01:39:34;;;;;;;2.83;2.27;;;;;;;15.22;100.00;149903.78;4972185;28;20330;-64
2023/09/04 01:42:00;;;;;;;6.13;2.40;;;;;;;15.07;100.00;149868.81;4955018;28;20239;-64
2023/09/04 01:44:27;;;;;;;3.33;2.33;;;;;;;14.97;100.00;149843.81;4967342;28;20228;-64
2023/09/04 01:46:54;;;;;;;2.83;2.40;;;;;;;14.89;100.00;149826.34;4937286;28;20244;-64
2023/09/04 01:49:20;;;;;;;5.07;2.80;;;;;;;14.83;100.00;149810.13;4988287;28;20235;-64
2023/09/04 01:51:47;;;;;;;4.33;2.50;;;;;;;14.83;100.00;149810.13;4977910;28;20240;-64
2023/09/04 01:54:14;;;;;;;2.93;2.37;;;;;;;14.71;100.00;149781.44;4981194;28;20228;-64
2023/09/04 01:56:42;;;;;;;3.40;2.57;;;;;;;14.67;100.00;149772.63;4970461;28;20227;-64
2023/09/04 01:59:08;;;;;;;4.60;2.70;;;;;;;14.55;100.00;149742.63;4982759;28;20234;-64
2023/09/04 02:01:35;;;;;;;5.03;2.23;;;;;;;14.49;100.00;149727.66;4969848;28;20242;-64
2023/09/04 02:04:01;;;;;;;4.83;2.53;;;;;;;14.47;100.00;149723.94;4989658;28;20228;-64
2023/09/04 02:06:34;;;;;;;4.20;2.53;;;;;;;14.49;100.00;149727.66;4983378;28;20231;-64
2023/09/04 02:09:00;;;;;;;2.57;2.23;;;;;;;14.44;100.00;149717.66;4963163;28;20629;-64
2023/09/04 02:11:27;;;;;;;3.73;2.37;;;;;;;14.37;100.00;149698.97;4968413;28;20242;-64
2023/09/04 02:13:55;;;;;;;2.90;2.57;;;;;;;14.30;100.00;149683.97;4940442;28;20227;-64
2023/09/04 02:16:22;;;;;;;3.37;2.50;;;;;;;14.41;100.00;149708.94;4971842;28;20254;-63
2023/09/04 02:18:50;;;;;;;2.87;2.40;;;;;;;14.40;100.00;149706.47;4986620;28;20288;-64
2023/09/04 02:21:17;;;;;;;3.10;2.30;;;;;;;14.30;100.00;149683.97;4989304;28;20246;-64
2023/09/04 02:23:44;;;;;;;3.90;2.73;;;;;;;14.35;100.00;149693.97;4978714;28;20239;-64
2023/09/04 02:26:11;;;;;;;4.77;2.30;;;;;;;14.32;100.00;149688.97;4979023;28;20771;-64
2023/09/04 02:28:37;;;;;;;3.70;2.60;;;;;;;14.26;100.00;149674.00;4978374;28;20225;-64
2023/09/04 02:31:07;;;;;;;4.23;1.90;;;;;;;14.25;100.00;149671.50;4998961;28;20246;-62
2023/09/04 02:33:34;;;;;;;3.07;2.43;;;;;;;14.22;100.00;149664.00;4983226;28;20625;-64
2023/09/04 02:36:00;;;;;;;2.73;2.30;;;;;;;14.36;100.00;149697.69;4989305;28;20230;-64
2023/09/04 02:38:27;;;;;;;6.13;2.43;;;;;;;14.48;100.00;149726.44;4983846;28;20231;-64
2023/09/04 02:40:54;;;;;;;3.57;2.40;;;;;;;14.47;100.00;149723.94;4982481;28;20245;-63
2023/09/04 02:43:20;;;;;;;4.40;2.70;;;;;;;14.45;100.00;149720.16;4996512;28;20215;-63
2023/09/04 02:45:47;;;;;;;2.87;2.17;;;;;;;14.48;100.00;149726.44;4991261;28;20573;-63
2023/09/04 02:48:15;;;;;;;2.97;2.30;;;;;;;14.51;100.00;149733.94;5000452;28;20227;-63
2023/09/04 02:50:42;;;;;;;7.03;1.90;;;;;;;14.57;100.00;149747.63;4978867;28;20231;-63
2023/09/04 02:53:08;;;;;;;3.60;2.17;;;;;;;14.56;100.00;149745.13;4999089;28;20230;-64
2023/09/04 02:55:34;;;;;;;4.90;2.23;;;;;;;14.58;100.00;149750.13;4985986;28;20260;-64
2023/09/04 02:58:01;;;;;;;5.00;2.23;;;;;;;14.77;100.00;149796.41;4982649;28;20226;-63
2023/09/04 03:03:59;;;;;;;4.33;2.60;;;;;;;14.75;100.00;149792.63;5764332;22;20685;-63
2023/09/04 03:06:26;;;;;;;3.93;2.20;;;;;;;15.19;100.00;149897.56;5000608;28;20229;-63
2023/09/04 03:08:52;;;;;;;3.93;2.60;;;;;;;15.17;100.00;149892.56;5002972;28;20317;-63
2023/09/04 03:11:19;;;;;;;2.93;2.17;;;;;;;15.50;100.00;149973.75;4989698;28;20219;-63
2023/09/04 03:13:46;;;;;;;3.53;2.10;;;;;;;15.50;100.00;149973.75;4986634;28;20227;-62
2023/09/04 03:16:13;;;;;;;6.43;3.70;;;;;;;15.47;100.00;149966.25;4991139;28;20223;-62
2023/09/04 03:18:39;;;;;;;3.03;2.20;;;;;;;15.33;100.00;149931.28;5004840;28;20715;-62
2023/09/04 03:21:09;;;;;;;3.57;1.77;;;;;;;15.25;100.00;149912.56;5007350;28;20712;-62
2023/09/04 03:23:38;;;;;;;3.57;2.00;;;;;;;15.17;100.00;149892.56;4977680;28;20223;-62
2023/09/04 03:26:05;;;;;;;2.20;2.00;;;;;;;15.27;100.00;149916.28;4981125;28;20227;-62
2023/09/04 03:28:31;;;;;;;4.57;2.23;;;;;;;15.16;100.00;149890.06;4995273;28;20245;-62
2023/09/04 03:30:58;;;;;;;3.30;1.87;;;;;;;15.08;100.00;149871.31;5217332;22;20303;-63
2023/09/04 03:33:26;;;;;;;2.73;2.33;;;;;;;15.02;100.00;149857.59;5003787;28;20227;-63
2023/09/04 03:35:53;;;;;;;7.30;2.30;;;;;;;15.22;100.00;149905.06;4985972;28;20690;-63
2023/09/04 03:38:20;;;;;;;3.67;2.00;;;;;;;15.14;100.00;149885.06;5006426;28;21186;-63
2023/09/04 03:40:47;;;;;;;2.07;1.87;;;;;;;15.14;100.00;149886.31;4986554;28;20239;-63
2023/09/04 03:43:14;;;;;;;2.20;2.00;;;;;;;15.03;100.00;149858.81;4991857;28;20835;-63
2023/09/04 03:45:40;;;;;;;3.23;2.03;;;;;;;14.99;100.00;149850.09;4987241;28;20325;-63
2023/09/04 03:48:07;;;;;;;4.10;1.80;;;;;;;14.93;100.00;149833.84;4989629;28;20709;-63
2023/09/04 03:50:35;;;;;;;2.57;2.30;;;;;;;15.09;100.00;149873.81;5007431;28;20222;-63
2023/09/04 03:53:03;;;;;;;2.73;1.80;;;;;;;15.18;100.00;149896.28;4977340;28;20589;-63
2023/09/04 03:55:32;;;;;;;3.37;2.43;;;;;;;15.21;100.00;149902.56;4976615;28;20709;-63
2023/09/04 03:57:58;;;;;;;2.73;2.30;;;;;;;15.18;100.00;149896.28;4985039;28;20371;-63
2023/09/04 04:00:25;;;;;;;2.93;2.17;;;;;;;15.12;100.00;149880.06;4989384;28;20219;-63
2023/09/04 04:02:52;;;;;;;3.13;2.63;;;;;;;15.11;100.00;149877.56;4986501;28;20234;-63
2023/09/04 04:05:20;;;;;;;2.60;2.20;;;;;;;15.14;100.00;149885.06;5006226;28;20231;-63
2023/09/04 04:07:47;;;;;;;2.43;2.03;;;;;;;15.24;100.00;149910.06;5003663;28;20283;-63
2023/09/04 04:10:13;;;;;;;4.90;2.63;;;;;;;15.53;100.00;149979.97;5005733;28;20309;-63
2023/09/04 04:12:41;;;;;;;4.00;2.20;;;;;;;15.50;100.00;149973.75;4986357;28;20241;-63
2023/09/04 04:15:11;;;;;;;3.30;2.10;;;;;;;15.85;100.00;150056.22;5004226;28;20218;-63
2023/09/04 04:17:39;;;;;;;4.20;1.87;;;;;;;15.79;100.00;150042.44;5002034;28;20313;-63
2023/09/04 04:20:10;;;;;;;6.23;2.30;;;;;;;15.82;100.00;150049.94;5007089;28;20236;-63
2023/09/04 04:22:37;;;;;;;7.70;2.23;;;;;;;15.76;100.00;150036.22;4985901;28;20226;-62
2023/09/04 04:25:04;;;;;;;2.53;2.20;;;;;;;15.74;100.00;150029.97;4988496;28;20227;-62
2023/09/04 04:27:30;;;;;;;4.00;2.20;;;;;;;15.87;100.00;150062.50;4988435;28;20651;-62
2023/09/04 04:29:59;;;;;;;3.20;2.20;;;;;;;16.06;100.00;150107.50;4985006;28;20245;-62
2023/09/04 04:32:28;;;;;;;2.70;2.30;;;;;;;15.92;100.00;150075.00;4983955;28;20241;-62
2023/09/04 04:34:56;;;;;;;4.93;2.00;;;;;;;15.82;100.00;150049.94;4991015;28;20316;-62
2023/09/04 04:37:23;;;;;;;4.17;1.97;;;;;;;15.71;100.00;150023.72;5003236;28;20222;-62
2023/09/04 04:39:52;;;;;;;3.90;2.10;;;;;;;15.63;100.00;150003.75;5002611;28;20701;-63
2023/09/04 04:42:19;;;;;;;2.93;2.20;;;;;;;15.52;100.00;149976.25;4996639;28;20238;-63
2023/09/04 04:44:46;;;;;;;2.50;2.30;;;;;;;15.52;100.00;149977.47;4987979;28;20682;-63
2023/09/04 04:47:16;;;;;;;2.80;2.20;;;;;;;15.49;100.00;149971.25;4987450;28;20249;-63
2023/09/04 04:49:44;;;;;;;3.37;2.43;;;;;;;15.72;100.00;150024.97;4986981;28;20321;-63
2023/09/04 04:52:11;;;;;;;2.83;2.40;;;;;;;15.90;100.00;150068.78;4998636;28;20262;-63
2023/09/04 04:54:37;;;;;;;3.03;2.50;;;;;;;16.36;100.00;150180.00;4985755;28;20229;-63
2023/09/04 04:57:06;;;;;;;2.70;2.37;;;;;;;16.96;99.29;150326.25;4987776;28;21187;-63
2023/09/04 04:59:32;;;;;;;3.90;2.33;;;;;;;17.32;95.59;150411.31;4987888;28;20290;-63
2023/09/04 05:02:00;;;;;;;3.13;2.83;;;;;;;17.55;92.54;150467.56;4985481;28;20246;-63
2023/09/04 05:04:29;;;;;;;3.67;2.03;;;;;;;17.37;95.30;150425.09;5004263;28;20232;-62
2023/09/04 05:06:56;;;;;;;2.90;2.47;;;;;;;17.53;94.45;150462.56;4985492;28;20331;-62
2023/09/04 05:09:23;;;;;;;3.60;2.37;;;;;;;17.34;93.08;150416.31;4993922;28;20238;-62
2023/09/04 05:11:50;;;;;;;4.50;2.30;;;;;;;17.31;92.96;150408.81;4985354;28;20244;-63
2023/09/04 05:14:17;;;;;;;4.47;1.97;;;;;;;17.36;92.67;150421.31;5004938;28;20310;-63
2023/09/04 05:16:44;;;;;;;4.73;2.10;;;;;;;17.30;93.47;150406.31;4987550;28;20228;-63
2023/09/04 05:19:10;;;;;;;3.27;2.20;;;;;;;17.17;94.46;150375.06;4987636;28;20219;-63
2023/09/04 05:21:38;;;;;;;2.97;2.30;;;;;;;17.11;94.96;150361.28;4984118;28;20235;-63
2023/09/04 05:24:05;;;;;;;4.43;2.17;;;;;;;17.18;94.63;150378.78;4986256;28;20216;-63
2023/09/04 05:26:34;;;;;;;3.53;2.30;;;;;;;17.14;94.91;150368.78;5005075;28;20695;-63
2023/09/04 05:29:00;;;;;;;5.47;2.40;;;;;;;17.19;94.58;150381.28;5003002;28;20323;-63
2023/09/04 05:31:27;;;;;;;3.73;2.30;;;;;;;17.21;94.21;150386.28;5004885;28;20590;-63
2023/09/04 05:33:54;;;;;;;3.17;2.20;;;;;;;17.16;94.54;150373.78;5002039;28;20243;-63
2023/09/04 05:36:20;;;;;;;4.83;2.27;;;;;;;17.11;96.81;150361.28;5003703;28;20219;-63
2023/09/04 05:38:48;;;;;;;3.67;2.30;;;;;;;17.07;96.41;150352.53;4999762;28;20234;-63
2023/09/04 05:41:15;;;;;;;2.70;2.00;;;;;;;17.07;95.83;150352.53;5004399;28;20242;-63
2023/09/04 05:43:41;;;;;;;4.57;2.27;;;;;;;17.13;96.99;150366.28;5001708;28;20315;-63
2023/09/04 05:46:08;;;;;;;2.80;2.00;;;;;;;17.06;95.98;150348.78;5004341;28;20223;-63
2023/09/04 05:48:35;;;;;;;3.63;2.20;;;;;;;17.00;97.57;150333.75;5006196;28;20223;-63
2023/09/04 05:51:02;;;;;;;5.10;2.27;;;;;;;16.85;100.00;150298.75;5003929;28;20232;-63
2023/09/04 05:53:29;;;;;;;2.63;2.33;;;;;;;16.77;100.00;150278.75;5004993;28;20290;-63
2023/09/04 05:56:09;;;;;;;3.53;2.17;;;;;;;16.76;100.00;150277.47;5004389;28;20297;-63
2023/09/04 05:58:44;;;;;;;4.40;1.93;;;;;;;16.70;100.00;150261.22;5001749;28;20314;-63
2023/09/04 06:01:10;;;;;;;3.27;2.37;;;;;;;16.62;100.00;150242.44;5005213;28;20710;-63
2023/09/04 06:03:37;;;;;;;2.60;2.20;;;;;;;16.59;100.00;150236.22;5002150;28;20244;-64
2023/09/04 06:06:03;;;;;;;2.47;2.10;;;;;;;16.57;100.00;150231.22;5005036;28;20237;-64
2023/09/04 06:08:30;;;;;;;3.47;2.03;;;;;;;16.51;100.00;150216.22;5003638;28;20231;-64
2023/09/04 06:10:57;;;;;;;4.80;2.27;;;;;;;16.48;100.00;150208.72;5000966;28;20224;-64
2023/09/04 06:13:25;;;;;;;2.93;2.20;;;;;;;16.48;100.00;150209.94;5003764;28;20227;-64
2023/09/04 06:15:53;;;;;;;3.37;2.17;;;;;;;16.52;100.00;150218.72;5000414;28;20221;-64
2023/09/04 06:18:20;;;;;;;3.80;2.43;;;;;;;16.50;100.00;150214.94;5004074;28;20231;-64
2023/09/04 06:20:46;;;;;;;3.30;1.97;;;;;;;16.52;100.00;150219.94;5001495;28;20620;-64
2023/09/04 06:23:13;;;;;;;3.40;2.20;;;;;;;16.52;100.00;150218.72;5007423;28;20674;-64
2023/09/04 06:25:42;;;;;;;2.87;2.13;;;;;;;16.53;100.00;150221.22;5005349;28;20223;-63
2023/09/04 06:28:10;;;;;;;4.13;2.30;;;;;;;16.52;100.00;150218.72;5005692;28;20222;-64
2023/09/04 06:30:39;;;;;;;2.50;2.30;;;;;;;16.54;100.00;150223.72;5005799;28;20254;-64
2023/09/04 06:33:06;;;;;;;5.37;2.40;;;;;;;16.58;100.00;150233.72;5007136;28;20229;-63
2023/09/04 06:35:33;;;;;;;3.23;2.00;;;;;;;16.64;100.00;150247.44;5006847;28;20614;-63
2023/09/04 06:38:00;;;;;;;3.07;2.47;;;;;;;16.69;100.00;150259.97;5004132;28;20241;-63
2023/09/04 06:40:27;;;;;;;2.50;2.30;;;;;;;16.74;100.00;150271.22;5008356;28;20211;-63
2023/09/04 06:42:54;;;;;;;2.30;2.07;;;;;;;16.75;100.00;150273.75;5004910;28;20222;-63
2023/09/04 06:45:20;;;;;;;4.60;2.40;;;;;;;16.79;100.00;150284.97;5006719;28;20231;-63
2023/09/04 06:47:49;;;;;;;4.30;2.80;;;;;;;16.81;100.00;150288.75;5003991;28;20232;-64
2023/09/04 06:50:16;;;;;;;2.80;2.10;;;;;;;16.62;100.00;150243.72;5007648;28;20327;-64
2023/09/04 06:52:43;;;;;;;3.90;2.37;;;;;;;16.75;100.00;150273.75;5005084;28;20227;-64
2023/09/04 06:55:10;;;;;;;3.43;2.50;;;;;;;16.81;100.00;150288.75;5007520;28;20234;-64
2023/09/04 06:57:37;;;;;;;3.63;2.73;;;;;;;16.90;100.00;150309.97;5005386;28;20233;-64
2023/09/04 07:00:08;;;;;;;6.00;2.83;;;;;;;17.02;100.00;150340.03;5008106;28;20577;-64
2023/09/04 07:02:35;;;;;;;5.10;3.00;;;;;;;17.12;100.00;150363.78;4986277;28;20877;-64
2023/09/04 07:05:04;;;;;;;2.63;2.30;;;;;;;17.13;100.00;150366.28;5004471;28;20237;-64
2023/09/04 07:07:35;;;;;;;4.00;3.33;;;;;;;17.23;100.00;150391.28;5005877;28;20302;-64
2023/09/04 07:10:02;;;;;;;5.07;3.20;;;;;;;17.32;100.00;150411.31;5004060;28;20248;-64
2023/09/04 07:12:30;;;;;;;6.47;3.63;;;;;;;17.41;100.00;150435.09;5006978;28;20230;-64
2023/09/04 07:14:57;;;;;;;6.80;3.87;;;;;;;17.48;100.00;150451.34;5003621;28;20235;-64
2023/09/04 07:17:24;;;;;;;5.10;4.20;;;;;;;17.55;100.00;150467.56;5006350;28;20586;-64
2023/09/04 07:19:51;;;;;;;4.93;3.90;;;;;;;17.53;100.00;150463.84;5004419;28;20229;-64
2023/09/04 07:22:19;;;;;;;5.43;3.83;;;;;;;17.46;100.00;150446.31;5007046;28;20552;-64
2023/09/04 07:24:45;;;;;;;4.67;3.87;;;;;;;17.59;100.00;150476.34;5002926;28;20281;-64
2023/09/04 07:27:12;;;;;;;5.17;3.80;;;;;;;17.54;100.00;150465.06;5006782;28;20235;-64
2023/09/04 07:29:39;;;;;;;5.47;3.50;;;;;;;17.68;100.00;150498.88;5004309;28;20580;-64
2023/09/04 07:32:06;;;;;;;6.93;4.00;;;;;;;17.65;100.00;150491.38;5004879;28;20238;-64
2023/09/04 07:34:32;;;;;;;5.17;3.27;;;;;;;17.79;100.00;150525.13;5006287;28;20227;-64
2023/09/04 07:36:59;;;;;;;4.60;3.50;;;;;;;17.94;99.15;150562.66;5004537;28;20235;-64
2023/09/04 07:39:27;;;;;;;3.93;3.43;;;;;;;17.91;99.96;150553.91;5007051;28;20227;-64
2023/09/04 07:41:55;;;;;;;4.20;3.47;;;;;;;18.03;100.00;150582.72;5003776;28;20236;-64
2023/09/04 07:44:22;;;;;;;4.70;3.70;;;;;;;18.17;98.83;150616.50;5007083;28;20256;-64
2023/09/04 07:46:48;;;;;;;5.33;3.87;;;;;;;18.21;100.00;150627.78;5003086;28;20710;-64
2023/09/04 07:49:15;;;;;;;5.53;3.87;;;;;;;18.33;99.01;150656.53;5007153;28;20216;-64
2023/09/04 07:51:42;;;;;;;7.07;3.47;;;;;;;18.39;100.00;150670.31;5004291;28;20224;-64
2023/09/04 07:54:11;;;;;;;4.03;3.57;;;;;;;18.48;96.33;150692.84;5005459;28;20213;-64
2023/09/04 07:56:39;;;;;;;4.63;3.47;;;;;;;18.48;96.18;150691.59;5003835;28;20233;-64
2023/09/04 07:59:06;;;;;;;6.13;3.80;;;;;;;18.58;100.00;150717.84;5005652;28;20221;-64
2023/09/04 08:01:34;;;;;;;5.47;3.70;;;;;;;18.65;99.87;150734.13;5004719;28;20225;-64
2023/09/04 08:04:01;;;;;;;4.70;3.37;;;;;;;18.76;99.29;150759.19;5002391;28;20229;-64
2023/09/04 08:06:31;;;;;;;7.00;3.40;;;;;;;18.76;95.63;150760.41;5006101;28;20233;-64
2023/09/04 08:08:58;;;;;;;4.63;3.27;;;;;;;18.83;94.17;150777.94;4986452;28;20233;-64
2023/09/04 08:11:25;;;;;;;4.37;3.13;;;;;;;18.95;94.41;150805.47;5006479;28;20241;-64
2023/09/04 08:13:52;;;;;;;5.20;3.03;;;;;;;18.98;94.38;150813.03;5001389;28;20224;-63
2023/09/04 08:16:19;;;;;;;7.97;3.67;;;;;;;19.07;96.27;150835.56;5003523;28;20225;-63
2023/09/04 08:18:46;;;;;;;5.17;3.57;;;;;;;19.16;92.02;150858.13;5002895;28;20221;-64
2023/09/04 08:21:12;;;;;;;6.03;3.27;;;;;;;19.28;95.17;150886.88;5005993;28;20243;-64
2023/09/04 08:23:39;;;;;;;5.23;3.30;;;;;;;19.41;92.19;150916.94;5002878;28;20228;-64
2023/09/04 08:26:06;;;;;;;4.40;3.00;;;;;;;19.56;91.86;150953.28;5004874;28;20215;-64
2023/09/04 08:28:33;;;;;;;4.97;3.63;;;;;;;19.63;90.97;150970.78;5005667;28;20225;-64
2023/09/04 08:31:01;;;;;;;3.77;3.27;;;;;;;19.65;90.79;150974.56;5002601;28;20237;-64
2023/09/04 08:33:28;;;;;;;5.60;3.53;;;;;;;19.77;90.01;151005.84;5004480;28;20579;-64
2023/09/04 08:35:54;;;;;;;4.17;3.17;;;;;;;19.84;88.91;151020.88;5003129;28;20226;-64
2023/09/04 08:38:21;;;;;;;4.80;2.90;;;;;;;19.94;89.32;151044.75;5006546;28;20557;-64
2023/09/04 08:40:48;;;;;;;4.40;2.60;;;;;;;20.11;95.42;151087.34;4991540;28;20216;-64
2023/09/04 08:43:17;;;;;;;6.27;2.80;;;;;;;20.22;90.95;151113.63;5005663;28;20233;-64
2023/09/04 08:45:44;;;;;;;3.93;2.60;;;;;;;20.34;90.48;151142.41;5002663;28;20228;-64
2023/09/04 08:48:13;;;;;;;4.90;3.23;;;;;;;20.53;89.39;151188.81;4978605;28;20237;-64
2023/09/04 08:50:41;;;;;;;3.40;2.50;;;;;;;20.65;85.86;151217.59;5003335;28;20227;-64
2023/09/04 08:53:08;;;;;;;2.87;2.23;;;;;;;20.76;76.86;151243.91;5003896;28;20709;-64
2023/09/04 08:55:35;;;;;;;3.27;2.17;;;;;;;21.21;64.37;151352.97;5004582;28;20284;-64
2023/09/04 08:58:03;;;;;;;3.60;2.70;;;;;;;21.28;77.66;151369.28;5003665;28;20230;-64
2023/09/04 09:00:30;;;;;;;3.40;2.60;;;;;;;21.41;78.81;151400.63;5005961;28;20234;-64
2023/09/04 09:02:59;;;;;;;10.03;2.87;;;;;;;21.50;75.02;151423.19;5000874;28;20229;-64
2023/09/04 09:05:27;;;;;;;4.10;2.07;;;;;;;21.53;77.06;151430.69;5005859;28;20237;-64
2023/09/04 09:07:54;;;;;;;2.63;2.23;;;;;;;21.59;74.13;151444.53;5003043;28;20231;-64
2023/09/04 09:10:23;;;;;;;4.60;2.40;;;;;;;21.66;74.96;151463.34;5005817;28;20231;-64
2023/09/04 09:12:50;;;;;;;3.10;2.50;;;;;;;21.75;76.04;151484.66;5001873;28;20690;-64
2023/09/04 09:15:17;;;;;;;5.70;3.17;;;;;;;21.92;78.63;151526.06;5006091;28;20233;-64
2023/09/04 09:17:53;;;;;;;4.77;2.90;;;;;;;21.97;76.47;151537.31;5001448;28;20689;-64
2023/09/04 09:20:34;;;;;;;3.63;2.80;;;;;;;22.12;76.41;151573.72;5005431;28;20215;-64
2023/09/04 09:23:00;;;;;;;3.90;2.80;;;;;;;22.25;82.19;151606.31;5001550;28;20260;-64
2023/09/04 09:25:28;;;;;;;4.10;2.60;;;;;;;22.34;77.84;151626.34;5004601;28;20218;-64
2023/09/04 09:28:00;;;;;;;5.23;2.67;;;;;;;22.39;75.44;151638.88;5001151;28;20592;-64
2023/09/04 09:30:30;;;;;;;4.70;2.60;;;;;;;22.49;74.64;151664.03;5004833;28;20227;-64
2023/09/04 09:32:57;;;;;;;3.73;2.97;;;;;;;22.51;74.48;151669.03;5000468;28;20247;-64
2023/09/04 09:35:24;;;;;;;2.63;2.30;;;;;;;22.64;73.99;151700.41;5004352;28;20634;-64
2023/09/04 09:37:53;;;;;;;4.90;2.80;;;;;;;22.81;77.76;151740.53;5001119;28;20223;-64
2023/09/04 09:40:21;;;;;;;2.87;2.37;;;;;;;22.90;65.60;151763.09;5005363;28;20228;-64
2023/09/04 09:42:48;;;;;;;4.70;2.60;;;;;;;23.02;72.38;151790.72;5001614;28;20223;-64
2023/09/04 09:45:15;;;;;;;5.10;2.63;;;;;;;23.08;69.96;151805.78;5004478;28;20220;-64
2023/09/04 09:47:41;;;;;;;3.37;2.47;;;;;;;23.12;68.30;151817.09;5001220;28;20225;-64
2023/09/04 09:50:09;;;;;;;4.93;2.43;;;;;;;23.12;67.70;151815.81;5005006;28;20222;-64
2023/09/04 09:52:35;;;;;;;6.13;2.83;;;;;;;23.20;70.04;151834.66;5002253;28;20235;-64
2023/09/04 09:55:04;;;;;;;3.30;3.00;;;;;;;23.31;72.28;151861.03;4995314;28;20619;-62
2023/09/04 09:57:32;;;;;;;3.53;2.77;;;;;;;23.46;68.43;151898.69;5001553;28;20239;-62
2023/09/04 10:00:01;;;;;;;5.33;2.63;;;;;;;23.63;70.92;151940.09;5000474;28;20236;-63
2023/09/04 10:02:27;;;;;;;3.93;2.27;;;;;;;23.68;52.12;151951.41;5002988;28;20303;-63
2023/09/04 10:04:55;;;;;;;4.40;2.33;;;;;;;23.92;49.27;152009.09;5000167;28;20232;-63
2023/09/04 10:07:22;;;;;;;2.30;2.00;;;;;;;24.21;50.27;152080.72;5004659;28;20214;-59
2023/09/04 10:09:59;;;;;;;2.23;2.03;;;;;;;24.56;42.25;152166.06;5001184;28;20232;-61
2023/09/04 10:12:34;;;;;;;3.37;2.13;;;;;;;24.49;44.38;152148.50;5004111;28;20327;-60
2023/09/04 10:15:01;;;;;;;3.20;2.08;;;;;;;24.56;46.62;152164.84;4999614;28;20485;-61
2023/09/04 10:17:35;;;;;;;3.63;2.07;;;;;;;24.54;41.91;152159.81;5002213;28;20212;-63
2023/09/04 10:20:04;;;;;;;3.00;1.77;;;;;;;24.53;43.51;152158.53;5000801;28;20690;-58
2023/09/04 10:22:36;;;;;;;3.70;2.00;;;;;;;24.68;50.44;152193.69;5004622;28;20306;-58
2023/09/04 10:25:07;;;;;;;3.53;1.97;;;;;;;24.71;46.47;152201.25;5000572;28;20774;-57
2023/09/04 10:27:42;;;;;;;2.50;2.17;;;;;;;24.76;52.02;152213.84;5004284;28;20606;-57
2023/09/04 10:30:13;;;;;;;2.53;1.90;;;;;;;24.90;42.75;152247.78;5000907;28;20235;-60
2023/09/04 10:32:40;;;;;;;2.57;2.10;;;;;;;25.17;40.06;152314.31;4998904;28;20590;-60
2023/09/04 10:35:08;;;;;;;2.20;1.90;;;;;;;25.34;52.32;152354.53;5003196;28;20224;-59
2023/09/04 10:37:37;;;;;;;2.60;2.30;;;;;;;25.42;41.91;152374.63;5003921;28;20243;-61
2023/09/04 10:40:05;;;;;;;2.97;2.10;;;;;;;25.54;46.26;152403.56;5001327;28;20237;-60
2023/09/04 10:42:33;;;;;;;3.43;2.23;;;;;;;25.60;47.20;152418.63;5002531;28;20242;-59
2023/09/04 10:45:12;;;;;;;3.57;2.13;;;;;;;25.61;44.20;152419.84;5000133;28;20334;-59
2023/09/04 10:47:45;;;;;;;2.80;2.27;;;;;;;25.76;39.61;152457.56;5000007;28;20265;-59
2023/09/04 10:50:27;;;;;;;3.40;2.10;;;;;;;25.79;37.38;152463.88;5004256;28;20239;-57
2023/09/04 10:52:53;;;;;;;2.73;2.10;;;;;;;26.00;37.82;152514.09;5000684;28;20598;-56
2023/09/04 10:55:20;;;;;;;2.90;2.30;;;;;;;26.11;43.35;152540.50;5003162;28;20221;-57
2023/09/04 10:57:54;;;;;;;4.10;2.20;;;;;;;26.12;43.40;152544.25;5000764;28;20243;-56
2023/09/04 11:00:30;;;;;;;2.67;2.00;;;;;;;26.17;44.68;152556.84;5002742;28;20254;-57
2023/09/04 11:02:59;;;;;;;3.43;2.07;;;;;;;26.25;42.58;152575.72;4999420;28;20358;-57
2023/09/04 11:05:25;;;;;;;4.27;2.17;;;;;;;26.18;39.16;152559.38;5003389;28;20239;-57
2023/09/04 11:07:52;;;;;;;3.00;2.33;;;;;;;26.28;41.74;152582.00;5002717;28;20603;-57
2023/09/04 11:10:34;;;;;;;2.60;1.87;;;;;;;26.31;37.87;152589.53;5006624;28;20227;-60
2023/09/04 11:13:01;;;;;;;5.70;3.07;;;;;;;26.42;35.97;152615.97;5004442;28;20823;-55
2023/09/04 11:15:29;;;;;;;4.27;2.43;;;;;;;26.44;39.43;152620.97;5001592;28;20589;-56
2023/09/04 11:17:56;;;;;;;2.20;1.90;;;;;;;26.47;35.52;152628.53;4993392;28;20246;-56
2023/09/04 11:20:27;;;;;;;3.23;2.43;;;;;;;26.48;36.80;152631.03;4998870;28;20222;-56
2023/09/04 11:22:56;;;;;;;2.30;2.10;;;;;;;26.60;34.68;152661.16;4996384;28;20301;-55
2023/09/04 11:25:23;;;;;;;2.60;1.87;;;;;;;26.74;37.30;152695.13;4998785;28;20728;-55